Time;durP1;ratioP1;P1;durP2;ratioP2;P2;SDS_P1;SDS_P2;PMS_P1;PMS_P2;Temp;Humidity;BMP_temperature;BMP_pressure;BME280_temperature;BME280_humidity;BME280_pressure;Samples;Min_cycle;Max_cycle;Signal;HPM_P1;HPM_P2
2021/03/06 00:00:12;;;;;;;60.80;30.73;;;1.30;92.80;;;;;;5029987;28;20073;-84
2021/03/06 00:02:38;;;;;;;50.25;27.95;;;1.30;92.90;;;;;;5046943;28;20025;-85
2021/03/06 00:05:05;;;;;;;51.78;28.95;;;1.30;92.90;;;;;;5046692;28;20433;-85
2021/03/06 00:07:31;;;;;;;56.00;29.35;;;1.30;93.00;;;;;;5029959;28;20399;-85
2021/03/06 00:09:57;;;;;;;61.13;33.00;;;1.30;93.00;;;;;;5046826;28;20025;-84
2021/03/06 00:12:23;;;;;;;43.85;28.40;;;1.30;93.00;;;;;;5046687;28;20037;-85
2021/03/06 00:14:49;;;;;;;49.25;27.58;;;1.30;93.10;;;;;;5030364;28;20123;-85
2021/03/06 00:17:14;;;;;;;53.92;28.88;;;1.30;93.20;;;;;;5046639;28;20029;-85
2021/03/06 00:19:40;;;;;;;52.17;29.58;;;1.30;93.10;;;;;;5030083;28;20040;-85
2021/03/06 00:22:06;;;;;;;48.90;28.35;;;1.30;93.20;;;;;;5030004;28;20044;-85
2021/03/06 00:24:32;;;;;;;47.33;29.08;;;1.30;93.30;;;;;;5030085;28;20033;-85
2021/03/06 00:26:58;;;;;;;47.22;29.13;;;1.30;93.40;;;;;;5029790;28;20037;-84
2021/03/06 00:29:23;;;;;;;56.25;30.55;;;1.30;93.50;;;;;;5046366;28;20077;-85
2021/03/06 00:31:50;;;;;;;46.60;29.55;;;1.40;93.60;;;;;;5046254;28;20428;-85
2021/03/06 00:34:15;;;;;;;49.40;29.90;;;1.40;93.60;;;;;;5029910;28;20554;-84
2021/03/06 00:36:41;;;;;;;52.50;30.08;;;1.40;93.70;;;;;;5046468;28;20029;-85
2021/03/06 00:39:07;;;;;;;60.53;30.02;;;1.50;93.90;;;;;;5029840;28;20031;-85
2021/03/06 00:41:33;;;;;;;54.47;28.13;;;1.60;94.00;;;;;;5029735;28;20036;-84
2021/03/06 00:43:59;;;;;;;53.47;28.77;;;1.70;94.00;;;;;;5046221;28;20120;-84
2021/03/06 00:46:25;;;;;;;54.42;27.95;;;1.80;94.20;;;;;;5029801;28;20037;-86
2021/03/06 00:48:51;;;;;;;58.30;31.75;;;1.90;94.00;;;;;;5031293;28;20037;-85
2021/03/06 00:51:17;;;;;;;49.50;28.25;;;2.00;94.00;;;;;;5033706;28;20537;-84
2021/03/06 00:53:43;;;;;;;52.45;27.55;;;2.00;93.90;;;;;;5049923;28;20105;-85
2021/03/06 00:56:09;;;;;;;51.70;29.85;;;2.10;94.00;;;;;;5033211;28;20584;-86
2021/03/06 00:58:35;;;;;;;48.20;29.40;;;2.10;94.00;;;;;;5032951;28;20028;-85
2021/03/06 01:01:01;;;;;;;47.80;24.77;;;2.20;94.00;;;;;;5050678;28;20025;-85
2021/03/06 01:03:26;;;;;;;44.08;25.35;;;2.20;94.10;;;;;;5049467;28;20040;-84
2021/03/06 01:05:53;;;;;;;50.47;27.75;;;2.30;94.10;;;;;;5033021;28;20020;-84
2021/03/06 01:08:18;;;;;;;44.53;26.48;;;2.40;94.00;;;;;;5049456;28;20037;-85
2021/03/06 01:10:46;;;;;;;49.20;27.77;;;2.40;94.00;;;;;;5033109;28;20117;-85
2021/03/06 01:13:13;;;;;;;50.33;26.00;;;2.40;94.00;;;;;;5049608;28;20017;-84
2021/03/06 01:15:39;;;;;;;49.72;27.08;;;2.50;93.90;;;;;;5049521;28;20028;-85
2021/03/06 01:18:06;;;;;;;46.80;24.98;;;2.50;93.90;;;;;;5050616;28;20028;-84
2021/03/06 01:20:33;;;;;;;49.47;25.33;;;2.50;94.00;;;;;;5032894;28;20033;-85
2021/03/06 01:23:00;;;;;;;50.10;26.42;;;2.50;94.00;;;;;;5050492;28;20518;-85
2021/03/06 01:25:25;;;;;;;46.40;25.00;;;2.50;94.20;;;;;;5049502;28;20060;-84
2021/03/06 01:27:51;;;;;;;44.15;24.08;;;2.60;94.20;;;;;;5048999;28;20080;-85
2021/03/06 01:30:19;;;;;;;40.15;23.70;;;2.60;94.30;;;;;;5050475;28;20540;-86
2021/03/06 01:32:45;;;;;;;45.90;24.17;;;2.70;94.30;;;;;;5049214;28;20021;-86
2021/03/06 01:35:12;;;;;;;45.88;23.65;;;2.80;94.30;;;;;;5032545;28;20107;-85
2021/03/06 01:37:39;;;;;;;46.47;23.55;;;2.90;94.20;;;;;;5050317;28;20025;-84
2021/03/06 01:40:11;;;;;;;43.28;23.75;;;2.90;94.20;;;;;;5049321;28;20036;-85
2021/03/06 01:42:37;;;;;;;41.58;21.95;;;3.00;94.50;;;;;;5048828;28;20032;-85
2021/03/06 01:45:05;;;;;;;35.80;20.48;;;3.00;94.20;;;;;;5032534;28;20032;-85
2021/03/06 01:47:31;;;;;;;40.45;20.25;;;3.10;94.20;;;;;;5032634;28;20040;-86
2021/03/06 01:49:57;;;;;;;38.30;22.67;;;3.20;94.20;;;;;;5048826;28;20029;-85
2021/03/06 01:52:23;;;;;;;44.30;23.30;;;3.20;94.10;;;;;;5032287;28;20147;-86
2021/03/06 01:54:50;;;;;;;40.63;21.33;;;3.20;94.00;;;;;;5031978;28;20095;-83
2021/03/06 01:57:16;;;;;;;42.30;22.95;;;3.20;94.10;;;;;;5032141;28;20036;-85
2021/03/06 01:59:42;;;;;;;36.83;22.02;;;3.30;94.10;;;;;;5048362;28;20051;-85
2021/03/06 02:02:07;;;;;;;42.53;21.88;;;3.30;94.00;;;;;;5031776;28;20480;-85
2021/03/06 02:04:36;;;;;;;42.55;24.38;;;3.40;94.00;;;;;;5048526;28;20029;-85
2021/03/06 02:07:03;;;;;;;46.90;25.38;;;3.40;93.90;;;;;;5031789;28;20065;-85
2021/03/06 02:09:29;;;;;;;46.28;22.90;;;3.40;93.90;;;;;;5048476;28;20120;-86
2021/03/06 02:12:02;;;;;;;40.28;24.17;;;3.40;93.90;;;;;;5049642;28;20029;-87
2021/03/06 02:14:51;;;;;;;44.80;25.15;;;3.40;93.90;;;;;;5048895;28;20021;-85
2021/03/06 02:17:42;;;;;;;40.47;23.15;;;3.50;93.90;;;;;;5048535;28;20422;-85
2021/03/06 02:20:42;;;;;;;45.88;24.38;;;3.50;93.90;;;;;;5048607;28;20033;-86
2021/03/06 02:23:35;;;;;;;40.92;23.33;;;3.50;93.90;;;;;;5048207;28;20239;-85
2021/03/06 02:26:28;;;;;;;42.35;23.17;;;3.60;93.90;;;;;;5049597;28;20431;-84
2021/03/06 02:29:03;;;;;;;51.25;25.13;;;3.60;93.90;;;;;;5047759;28;20044;-86
2021/03/06 02:31:32;;;;;;;44.97;23.65;;;3.70;93.80;;;;;;5048211;28;20426;-85
2021/03/06 02:34:05;;;;;;;40.67;20.95;;;3.70;93.80;;;;;;5048034;28;20063;-84
2021/03/06 02:36:37;;;;;;;39.33;22.40;;;3.70;93.80;;;;;;5047934;28;20025;-87
2021/03/06 02:39:05;;;;;;;37.22;20.50;;;3.80;93.80;;;;;;5047774;28;20029;-87
2021/03/06 02:41:32;;;;;;;41.30;20.80;;;3.80;93.70;;;;;;5047933;28;20103;-86
2021/03/06 02:44:00;;;;;;;38.33;22.23;;;3.80;93.70;;;;;;5031677;28;20053;-86
2021/03/06 02:46:27;;;;;;;33.28;20.63;;;3.80;93.60;;;;;;5031983;28;20039;-84
2021/03/06 02:48:54;;;;;;;37.08;20.85;;;3.80;93.60;;;;;;5047458;28;20075;-86
2021/03/06 02:51:21;;;;;;;40.58;20.38;;;3.80;93.60;;;;;;5031212;28;20025;-86
2021/03/06 02:53:47;;;;;;;39.25;20.90;;;3.70;93.80;;;;;;5030836;28;20033;-84
2021/03/06 02:56:15;;;;;;;40.47;23.23;;;3.80;93.90;;;;;;5047402;28;20372;-85
2021/03/06 02:58:56;;;;;;;42.90;20.90;;;3.80;93.90;;;;;;5030978;28;20029;-87
2021/03/06 03:01:30;;;;;;;33.95;20.05;;;3.80;93.90;;;;;;5047596;28;20028;-85
2021/03/06 03:04:20;;;;;;;38.38;20.95;;;3.70;93.70;;;;;;5047807;28;20099;-85
2021/03/06 03:06:48;;;;;;;40.22;21.42;;;3.70;93.90;;;;;;5047335;28;20021;-85
2021/03/06 03:09:24;;;;;;;36.78;20.10;;;3.70;93.90;;;;;;5047400;28;20032;-86
2021/03/06 03:12:13;;;;;;;42.15;20.30;;;3.80;93.90;;;;;;5046702;28;20020;-86
2021/03/06 03:15:02;;;;;;;34.78;19.40;;;3.80;93.80;;;;;;5047467;28;20553;-85
2021/03/06 03:17:38;;;;;;;31.60;19.02;;;3.80;93.80;;;;;;5047133;28;20028;-86
2021/03/06 03:20:19;;;;;;;32.72;18.38;;;3.80;93.80;;;;;;5047250;28;20036;-85
2021/03/06 03:22:48;;;;;;;34.60;18.52;;;3.80;93.90;;;;;;5047130;28;20025;-86
2021/03/06 03:25:16;;;;;;;35.25;19.13;;;3.90;93.90;;;;;;5047091;28;20041;-85
2021/03/06 03:27:43;;;;;;;30.25;18.75;;;3.90;94.00;;;;;;5047004;28;20064;-86
2021/03/06 03:30:12;;;;;;;34.28;19.48;;;4.00;93.90;;;;;;5047013;28;20080;-84
2021/03/06 03:32:42;;;;;;;32.63;19.42;;;3.90;93.80;;;;;;5030764;28;20044;-86
2021/03/06 03:35:12;;;;;;;34.20;19.70;;;3.90;93.90;;;;;;5047169;28;20087;-85
2021/03/06 03:37:38;;;;;;;33.30;18.20;;;3.80;94.00;;;;;;5047078;28;20395;-86
2021/03/06 03:40:05;;;;;;;34.35;20.60;;;3.80;94.10;;;;;;5048132;28;20103;-84
2021/03/06 03:42:32;;;;;;;36.53;19.63;;;3.90;94.20;;;;;;5030507;28;20036;-85
2021/03/06 03:44:58;;;;;;;36.33;19.52;;;3.90;94.10;;;;;;5048064;28;20029;-84
2021/03/06 03:47:25;;;;;;;29.25;18.77;;;4.00;94.00;;;;;;5030277;28;20025;-85
2021/03/06 03:49:51;;;;;;;38.47;18.38;;;3.90;93.90;;;;;;5046735;28;20033;-85
2021/03/06 03:52:16;;;;;;;31.92;17.42;;;3.90;94.00;;;;;;5046908;28;20028;-86
2021/03/06 03:54:42;;;;;;;30.98;17.88;;;3.90;94.00;;;;;;5046763;28;20552;-87
2021/03/06 03:57:09;;;;;;;34.08;17.50;;;3.90;94.10;;;;;;5030175;28;20026;-86
2021/03/06 03:59:35;;;;;;;33.65;17.67;;;3.90;94.10;;;;;;5046968;28;20073;-85
2021/03/06 04:02:01;;;;;;;33.88;17.20;;;3.90;94.10;;;;;;5030205;28;20029;-85
2021/03/06 04:04:30;;;;;;;25.08;16.40;;;3.80;94.00;;;;;;5047872;28;20033;-86
2021/03/06 04:06:58;;;;;;;37.35;19.33;;;3.80;94.20;;;;;;5047956;28;20118;-85
2021/03/06 04:09:24;;;;;;;30.92;17.05;;;3.80;94.20;;;;;;5030521;28;20098;-86
2021/03/06 04:11:51;;;;;;;30.48;16.67;;;3.80;94.30;;;;;;5046584;28;20049;-85
2021/03/06 04:14:17;;;;;;;32.30;16.42;;;3.80;94.40;;;;;;5046635;28;20030;-86
2021/03/06 04:16:43;;;;;;;30.42;17.95;;;3.80;94.50;;;;;;5046602;28;20104;-86
2021/03/06 04:19:09;;;;;;;26.00;15.93;;;3.90;94.40;;;;;;5046499;28;20288;-85
2021/03/06 04:21:35;;;;;;;29.25;17.70;;;3.90;94.30;;;;;;5047826;28;20029;-85
2021/03/06 04:24:00;;;;;;;28.48;15.32;;;3.80;94.30;;;;;;5050595;28;20468;-85
2021/03/06 04:26:26;;;;;;;32.97;17.63;;;3.80;94.40;;;;;;5033879;28;20053;-85
2021/03/06 04:28:52;;;;;;;30.38;16.55;;;3.70;94.40;;;;;;5051220;28;20128;-86
2021/03/06 04:31:18;;;;;;;32.78;17.65;;;3.70;94.40;;;;;;5034062;28;20094;-84
2021/03/06 04:33:44;;;;;;;34.78;17.58;;;3.70;94.50;;;;;;5033904;28;20123;-84
2021/03/06 04:36:10;;;;;;;26.85;15.95;;;3.80;94.50;;;;;;5033520;28;20098;-85
2021/03/06 04:38:36;;;;;;;34.22;17.33;;;3.80;94.50;;;;;;5050008;28;20025;-86
2021/03/06 04:41:02;;;;;;;35.35;18.00;;;3.80;94.60;;;;;;5033758;28;20074;-85
2021/03/06 04:43:28;;;;;;;29.85;16.52;;;3.80;94.60;;;;;;5033565;28;20129;-85
2021/03/06 04:45:54;;;;;;;38.28;18.95;;;3.80;94.60;;;;;;5050054;28;20124;-85
2021/03/06 04:48:20;;;;;;;31.10;17.25;;;3.90;94.50;;;;;;5033412;28;20032;-85
2021/03/06 04:50:46;;;;;;;30.75;17.00;;;3.90;94.50;;;;;;5049837;28;20043;-86
2021/03/06 04:53:12;;;;;;;27.08;17.05;;;3.90;94.40;;;;;;5050112;28;20029;-87
2021/03/06 04:55:37;;;;;;;26.85;16.80;;;3.90;94.50;;;;;;5033139;28;20033;-85
2021/03/06 04:58:03;;;;;;;35.80;19.13;;;3.90;94.50;;;;;;5033421;28;20044;-87
2021/03/06 05:00:31;;;;;;;31.20;17.40;;;4.00;94.50;;;;;;5033333;28;20036;-86
2021/03/06 05:02:57;;;;;;;28.38;16.30;;;4.00;94.50;;;;;;5033233;28;20497;-84
2021/03/06 05:05:22;;;;;;;31.33;18.00;;;4.10;94.50;;;;;;5033047;28;20124;-86
2021/03/06 05:07:48;;;;;;;33.15;17.92;;;4.10;94.50;;;;;;5049643;28;20099;-85
2021/03/06 05:10:14;;;;;;;26.25;15.98;;;4.10;94.50;;;;;;5032842;28;20033;-86
2021/03/06 05:12:39;;;;;;;30.40;17.08;;;4.10;94.40;;;;;;5033246;28;20025;-86
2021/03/06 05:15:06;;;;;;;37.38;18.02;;;4.10;94.50;;;;;;5049929;28;20033;-85
2021/03/06 05:17:32;;;;;;;30.25;18.55;;;4.10;94.50;;;;;;5032725;28;20040;-84
2021/03/06 05:19:59;;;;;;;34.78;17.30;;;4.00;94.50;;;;;;5050735;28;20031;-85
2021/03/06 05:22:25;;;;;;;27.15;17.42;;;4.00;94.50;;;;;;5049451;28;20032;-86
2021/03/06 05:24:50;;;;;;;30.23;17.13;;;4.00;94.50;;;;;;5032898;28;20057;-86
2021/03/06 05:27:16;;;;;;;26.50;17.50;;;4.00;94.60;;;;;;5032313;28;20505;-85
2021/03/06 05:29:42;;;;;;;43.85;18.08;;;4.00;94.70;;;;;;5032507;28;20036;-85
2021/03/06 05:32:08;;;;;;;31.95;18.10;;;4.00;94.70;;;;;;5049197;28;20029;-86
2021/03/06 05:34:34;;;;;;;26.50;16.30;;;4.00;94.70;;;;;;5049708;28;20021;-85
2021/03/06 05:36:59;;;;;;;29.05;17.50;;;4.00;94.70;;;;;;5049005;28;20460;-85
2021/03/06 05:39:25;;;;;;;27.52;17.02;;;4.00;94.80;;;;;;5050408;28;20035;-85
2021/03/06 05:41:52;;;;;;;30.30;16.90;;;4.00;94.80;;;;;;5032944;28;20085;-85
2021/03/06 05:44:19;;;;;;;31.38;18.75;;;4.00;94.90;;;;;;5032396;28;20381;-86
2021/03/06 05:46:45;;;;;;;31.58;17.20;;;4.10;94.90;;;;;;5049026;28;20533;-85
2021/03/06 05:49:14;;;;;;;31.45;18.20;;;4.10;94.90;;;;;;5048945;28;20590;-86
2021/03/06 05:51:41;;;;;;;29.27;17.90;;;4.10;94.90;;;;;;5049107;28;20017;-86
2021/03/06 05:54:13;;;;;;;30.20;17.58;;;4.20;94.90;;;;;;5048912;28;20025;-85
2021/03/06 05:56:43;;;;;;;28.55;16.73;;;4.10;94.90;;;;;;5050086;28;20096;-86
2021/03/06 05:59:13;;;;;;;33.75;18.50;;;4.10;94.90;;;;;;5050137;28;20108;-85
2021/03/06 06:01:41;;;;;;;27.65;17.73;;;4.10;95.00;;;;;;5048586;28;20120;-84
2021/03/06 06:04:08;;;;;;;31.73;18.45;;;4.10;94.90;;;;;;5048416;28;20048;-86
2021/03/06 06:06:38;;;;;;;30.25;17.80;;;4.10;95.00;;;;;;5048356;28;20487;-85
2021/03/06 06:09:07;;;;;;;33.40;17.17;;;4.10;95.10;;;;;;5048526;28;20056;-85
2021/03/06 06:11:33;;;;;;;28.33;16.55;;;4.10;95.20;;;;;;5048419;28;20123;-86
2021/03/06 06:14:00;;;;;;;31.20;18.10;;;4.20;95.20;;;;;;5049799;28;20100;-86
2021/03/06 06:16:30;;;;;;;29.38;16.45;;;4.20;95.10;;;;;;5048457;28;20028;-85
2021/03/06 06:18:56;;;;;;;29.52;17.25;;;4.20;95.10;;;;;;5031576;28;20032;-86
2021/03/06 06:21:42;;;;;;;32.10;18.33;;;4.10;95.20;;;;;;5048379;28;20033;-86
2021/03/06 06:24:16;;;;;;;27.52;17.65;;;4.10;95.30;;;;;;5048041;28;20082;-86
2021/03/06 06:26:59;;;;;;;28.23;17.13;;;4.10;95.20;;;;;;5048224;28;20029;-84
2021/03/06 06:29:39;;;;;;;27.52;16.70;;;4.00;95.20;;;;;;5049187;28;20048;-85
2021/03/06 06:32:07;;;;;;;27.55;17.48;;;3.90;95.20;;;;;;5031704;28;20081;-86
2021/03/06 06:34:35;;;;;;;27.40;16.90;;;3.80;95.20;;;;;;5048254;28;20025;-87
2021/03/06 06:37:07;;;;;;;32.20;17.30;;;3.70;95.30;;;;;;5031761;28;20029;-87
2021/03/06 06:39:33;;;;;;;38.78;18.90;;;3.60;95.40;;;;;;5047929;28;20028;-85
2021/03/06 06:42:00;;;;;;;25.65;16.98;;;3.60;95.50;;;;;;5031221;28;20029;-84
2021/03/06 06:44:28;;;;;;;28.75;17.58;;;3.60;95.60;;;;;;5047519;28;20039;-87
2021/03/06 06:46:56;;;;;;;26.40;16.95;;;3.60;95.60;;;;;;5046767;28;20124;-85
2021/03/06 06:49:22;;;;;;;32.92;18.17;;;3.60;95.70;;;;;;5047710;28;20028;-85
2021/03/06 06:51:58;;;;;;;30.23;16.77;;;3.60;95.70;;;;;;5031363;28;20537;-86
2021/03/06 06:54:24;;;;;;;32.00;18.38;;;3.60;95.80;;;;;;5031022;28;20148;-86
2021/03/06 06:56:50;;;;;;;30.67;16.90;;;3.60;95.70;;;;;;5048818;28;20028;-85
2021/03/06 06:59:17;;;;;;;30.35;16.00;;;3.50;95.60;;;;;;5047592;28;20025;-85
2021/03/06 07:01:43;;;;;;;29.80;16.67;;;3.50;95.90;;;;;;5047499;28;20108;-87
2021/03/06 07:04:11;;;;;;;25.98;16.25;;;3.50;96.00;;;;;;5030959;28;20068;-86
2021/03/06 07:06:37;;;;;;;29.27;16.50;;;3.50;96.10;;;;;;5047423;28;20026;-81
2021/03/06 07:09:06;;;;;;;25.30;16.25;;;3.50;96.40;;;;;;5030715;28;20029;-86
2021/03/06 07:11:33;;;;;;;28.80;15.35;;;3.50;96.20;;;;;;5030766;28;20021;-85
2021/03/06 07:13:59;;;;;;;23.80;16.08;;;3.60;96.10;;;;;;5031328;28;20029;-84
2021/03/06 07:16:44;;;;;;;29.30;16.70;;;3.70;96.10;;;;;;5031031;28;20089;-85
2021/03/06 07:19:10;;;;;;;27.08;15.93;;;3.80;96.10;;;;;;5048324;28;20108;-85
2021/03/06 07:21:51;;;;;;;26.98;15.52;;;3.80;96.00;;;;;;5030711;28;20123;-86
2021/03/06 07:24:17;;;;;;;25.20;15.93;;;3.80;96.00;;;;;;5030308;28;20032;-84
2021/03/06 07:26:43;;;;;;;25.08;15.95;;;3.90;96.00;;;;;;5046797;28;20068;-86
2021/03/06 07:29:09;;;;;;;28.05;15.50;;;3.90;96.00;;;;;;5048164;28;20055;-85
2021/03/06 07:31:38;;;;;;;28.85;16.88;;;3.90;96.00;;;;;;5047096;28;20466;-86
2021/03/06 07:34:08;;;;;;;27.08;15.52;;;3.90;96.00;;;;;;5030349;28;20028;-85
2021/03/06 07:36:37;;;;;;;28.58;15.23;;;4.00;96.10;;;;;;5047114;28;20025;-85
2021/03/06 07:39:04;;;;;;;22.60;13.15;;;4.00;96.10;;;;;;5048232;28;20040;-85
2021/03/06 07:41:39;;;;;;;24.42;14.13;;;4.00;96.10;;;;;;5046943;28;20033;-85
2021/03/06 07:44:06;;;;;;;30.20;15.50;;;4.00;96.10;;;;;;5048318;28;20017;-86
2021/03/06 07:46:38;;;;;;;32.28;16.63;;;4.10;96.20;;;;;;5046678;28;20032;-86
2021/03/06 07:49:12;;;;;;;28.58;15.32;;;4.10;96.20;;;;;;5047344;28;20032;-86
2021/03/06 07:51:42;;;;;;;25.95;15.57;;;4.20;96.10;;;;;;5046788;28;20025;-84
2021/03/06 07:54:10;;;;;;;26.23;15.95;;;4.30;96.10;;;;;;5048153;28;20092;-86
2021/03/06 07:56:38;;;;;;;27.60;15.10;;;4.40;96.10;;;;;;5046894;28;20031;-83
2021/03/06 07:59:04;;;;;;;27.25;15.38;;;4.40;96.10;;;;;;5034179;28;20431;-86
2021/03/06 08:01:31;;;;;;;24.50;15.02;;;4.50;96.00;;;;;;5050599;28;20111;-80
2021/03/06 08:03:58;;;;;;;37.60;14.90;;;4.50;96.10;;;;;;5034319;28;20036;-84
2021/03/06 08:06:33;;;;;;;25.73;15.45;;;4.60;96.00;;;;;;5051026;28;20028;-85
2021/03/06 08:09:11;;;;;;;25.58;16.35;;;4.70;96.00;;;;;;5035746;28;20036;-86
2021/03/06 08:11:43;;;;;;;30.23;17.02;;;4.70;96.00;;;;;;5034303;28;20032;-87
2021/03/06 08:14:31;;;;;;;26.77;15.82;;;4.80;96.00;;;;;;5050235;28;20090;-85
2021/03/06 08:16:56;;;;;;;25.90;15.10;;;4.80;96.00;;;;;;5052029;28;20461;-85
2021/03/06 08:19:25;;;;;;;21.30;13.93;;;4.90;96.00;;;;;;5050795;28;20051;-84
2021/03/06 08:21:52;;;;;;;21.60;13.40;;;5.10;96.10;;;;;;5051122;28;20041;-85
2021/03/06 08:24:18;;;;;;;26.08;13.30;;;5.20;96.00;;;;;;5050502;28;20032;-84
2021/03/06 08:27:02;;;;;;;21.48;12.18;;;5.30;95.80;;;;;;5050285;28;20025;-84
2021/03/06 08:29:29;;;;;;;22.45;12.05;;;5.40;95.70;;;;;;5050335;28;20085;-86
2021/03/06 08:31:55;;;;;;;25.20;12.32;;;5.50;95.70;;;;;;5050582;28;20024;-86
2021/03/06 08:34:30;;;;;;;25.13;13.02;;;5.60;95.70;;;;;;5050930;28;20112;-84
2021/03/06 08:39:58;;;;;;;25.23;11.35;;;5.80;95.60;;;;;;5052742;28;20384;-85
2021/03/06 08:42:36;;;;;;;20.50;10.80;;;5.90;95.40;;;;;;5050652;28;20090;-84
2021/03/06 08:45:05;;;;;;;22.63;11.50;;;6.00;95.30;;;;;;5051771;28;20075;-85
2021/03/06 08:47:33;;;;;;;;;;;6.10;95.10;;;;;;5049775;28;20035;-84
2021/03/06 08:50:03;;;;;;;22.13;11.55;;;6.20;95.20;;;;;;5050056;28;19912;-85
2021/03/06 08:52:29;;;;;;;20.27;11.20;;;6.30;95.00;;;;;;5051740;28;20021;-85
2021/03/06 08:54:56;;;;;;;22.73;11.70;;;6.40;95.00;;;;;;5051479;28;20029;-84
2021/03/06 08:57:24;;;;;;;22.85;10.77;;;6.40;94.90;;;;;;5049615;28;20105;-84
2021/03/06 08:59:50;;;;;;;20.52;10.50;;;6.50;95.00;;;;;;5050964;28;20048;-87
2021/03/06 09:02:18;;;;;;;14.80;9.75;;;6.60;95.00;;;;;;5050108;28;20079;-84
2021/03/06 09:04:44;;;;;;;20.92;10.77;;;6.70;94.80;;;;;;5050262;28;20048;-84
2021/03/06 09:07:30;;;;;;;17.25;10.18;;;6.80;94.70;;;;;;5034868;28;20340;-84
2021/03/06 09:10:19;;;;;;;36.80;11.35;;;6.90;94.50;;;;;;5048790;28;20498;-85
2021/03/06 09:12:47;;;;;;;24.52;9.77;;;7.00;94.30;;;;;;5051147;28;20050;-87
2021/03/06 09:15:23;;;;;;;25.70;10.32;;;7.10;94.20;;;;;;5034709;28;20032;-86
2021/03/06 09:17:49;;;;;;;15.00;9.32;;;7.20;94.10;;;;;;5051380;28;20392;-85
2021/03/06 09:20:15;;;;;;;23.65;9.73;;;7.30;94.00;;;;;;5050838;28;20029;-86
2021/03/06 09:22:48;;;;;;;16.92;9.57;;;7.30;93.80;;;;;;5050357;28;20513;-85
2021/03/06 09:25:14;;;;;;;18.60;9.65;;;7.40;93.70;;;;;;5049987;28;20032;-87
2021/03/06 09:27:47;;;;;;;19.27;8.65;;;7.50;93.70;;;;;;5049716;28;20045;-84
2021/03/06 09:30:21;;;;;;;24.30;9.43;;;7.60;93.50;;;;;;5049741;28;20043;-85
2021/03/06 09:32:47;;;;;;;18.02;8.02;;;7.70;93.30;;;;;;5050216;28;20029;-86
2021/03/06 09:35:14;;;;;;;14.35;7.25;;;7.80;93.30;;;;;;5049154;28;20020;-86
2021/03/06 09:37:40;;;;;;;15.93;6.63;;;7.90;93.20;;;;;;5049309;28;20021;-85
2021/03/06 09:40:22;;;;;;;16.45;7.20;;;8.00;92.90;;;;;;5032125;28;20039;-84
2021/03/06 09:42:51;;;;;;;16.98;7.80;;;8.10;92.50;;;;;;5049073;28;20509;-86
2021/03/06 09:45:18;;;;;;;14.25;6.72;;;8.20;92.20;;;;;;5032301;28;20369;-84
2021/03/06 09:47:44;;;;;;;25.58;8.02;;;8.30;92.00;;;;;;5048576;28;20037;-85
2021/03/06 09:50:12;;;;;;;18.75;6.93;;;8.30;91.70;;;;;;5048748;28;20500;-85
2021/03/06 09:52:38;;;;;;;36.45;8.48;;;8.30;91.60;;;;;;5049046;28;20037;-85
2021/03/06 09:55:15;;;;;;;14.60;6.60;;;8.40;91.50;;;;;;5048856;28;20032;-85
2021/03/06 09:57:41;;;;;;;19.08;7.25;;;8.50;91.20;;;;;;5033781;28;20059;-87
2021/03/06 10:00:07;;;;;;;12.13;5.05;;;8.70;90.90;;;;;;5033849;28;20056;-86
2021/03/06 10:02:33;;;;;;;10.57;5.97;;;8.80;90.70;;;;;;5048607;28;20108;-85
2021/03/06 10:05:00;;;;;;;9.75;5.05;;;8.90;90.30;;;;;;5032256;28;20116;-85
2021/03/06 10:07:28;;;;;;;13.15;5.10;;;9.00;90.00;;;;;;5048573;28;20060;-85
2021/03/06 10:09:53;;;;;;;14.15;5.53;;;9.10;89.40;;;;;;5032305;28;20029;-85
2021/03/06 10:12:20;;;;;;;13.27;4.63;;;9.30;88.70;;;;;;5032001;28;20044;-86
2021/03/06 10:14:51;;;;;;;14.02;6.25;;;9.40;88.00;;;;;;5031849;28;20387;-89
2021/03/06 10:17:23;;;;;;;10.73;5.20;;;9.60;87.00;;;;;;5048810;28;20035;-85
2021/03/06 10:19:52;;;;;;;28.40;5.70;;;10.10;88.50;;;;;;5047475;28;20432;-86
2021/03/06 10:22:19;;;;;;;11.73;3.45;;;11.50;90.60;;;;;;5048618;28;20028;-88
2021/03/06 10:24:51;;;;;;;11.25;4.25;;;13.30;90.10;;;;;;5049918;28;20426;-85
2021/03/06 10:27:17;;;;;;;11.55;4.07;;;15.00;84.60;;;;;;5048127;28;20145;-83
2021/03/06 10:29:42;;;;;;;7.95;3.40;;;16.30;81.10;;;;;;5049810;28;20112;-88
2021/03/06 10:32:09;;;;;;;10.95;3.75;;;17.20;74.50;;;;;;5048502;28;20031;-87
2021/03/06 10:34:36;;;;;;;13.75;3.88;;;17.90;70.50;;;;;;5048719;28;20032;-86
2021/03/06 10:37:12;;;;;;;11.43;3.58;;;18.40;66.90;;;;;;5049651;28;20036;-85
2021/03/06 10:39:57;;;;;;;11.15;3.72;;;18.30;62.80;;;;;;5050796;28;20020;-87
2021/03/06 10:42:43;;;;;;;11.43;4.68;;;17.80;59.80;;;;;;5047475;28;20296;-87
2021/03/06 10:45:22;;;;;;;10.77;3.80;;;17.10;59.50;;;;;;5047252;28;20043;-86
2021/03/06 10:47:53;;;;;;;9.77;4.03;;;17.50;61.70;;;;;;5047255;28;20470;-85
2021/03/06 10:50:26;;;;;;;15.38;4.10;;;17.70;58.30;;;;;;5049468;28;20040;-84
2021/03/06 10:53:08;;;;;;;7.13;3.85;;;17.60;57.70;;;;;;5048375;28;20376;-83
2021/03/06 10:55:35;;;;;;;11.90;4.20;;;17.50;57.00;;;;;;5033103;28;20494;-86
2021/03/06 10:58:01;;;;;;;8.18;3.95;;;17.30;57.20;;;;;;5047721;28;20029;-86
2021/03/06 11:00:27;;;;;;;7.30;4.10;;;17.30;56.60;;;;;;5015482;28;20120;-86
2021/03/06 11:03:01;;;;;;;11.88;4.38;;;17.60;56.40;;;;;;5015728;28;20036;-86
2021/03/06 11:05:28;;;;;;;9.25;4.18;;;18.00;55.90;;;;;;5050149;28;20031;-89
2021/03/06 11:07:55;;;;;;;9.95;3.85;;;18.80;55.80;;;;;;5049622;28;20048;-86
2021/03/06 11:10:22;;;;;;;10.63;4.68;;;19.60;54.90;;;;;;5032922;28;20033;-86
2021/03/06 11:12:57;;;;;;;11.63;4.55;;;19.70;51.70;;;;;;5047899;28;20029;-86
2021/03/06 11:15:27;;;;;;;25.55;4.45;;;18.70;49.20;;;;;;5047079;28;20025;-88
2021/03/06 11:17:56;;;;;;;10.43;4.38;;;17.60;49.30;;;;;;5047928;28;20021;-87
2021/03/06 11:20:25;;;;;;;16.10;5.07;;;16.80;49.50;;;;;;5047822;28;20033;-87
2021/03/06 11:22:51;;;;;;;14.55;5.18;;;15.90;49.80;;;;;;5049176;28;20040;-87
2021/03/06 11:25:17;;;;;;;7.50;4.13;;;15.40;50.90;;;;;;5048920;28;20036;-86
2021/03/06 11:28:02;;;;;;;13.98;4.90;;;15.10;51.20;;;;;;5049258;28;20092;-85
2021/03/06 11:30:34;;;;;;;15.23;5.28;;;15.00;51.30;;;;;;5048031;28;20116;-85
2021/03/06 11:33:01;;;;;;;8.77;4.28;;;14.80;51.40;;;;;;5047836;28;20017;-85
2021/03/06 11:35:28;;;;;;;8.63;4.43;;;14.60;51.50;;;;;;5032275;28;20029;-87
2021/03/06 11:37:55;;;;;;;12.27;5.03;;;15.00;53.60;;;;;;5048552;28;20060;-86
2021/03/06 11:40:24;;;;;;;12.52;5.32;;;16.10;54.70;;;;;;5032074;28;20467;-88
2021/03/06 11:42:50;;;;;;;18.33;5.28;;;17.30;53.90;;;;;;5048709;28;20036;-87
2021/03/06 11:45:18;;;;;;;12.32;4.72;;;18.50;53.30;;;;;;5048158;28;20029;-86
2021/03/06 11:47:45;;;;;;;6.68;4.20;;;19.70;51.80;;;;;;5047065;28;20375;-86
2021/03/06 11:50:13;;;;;;;14.98;6.00;;;20.60;50.50;;;;;;5046503;28;20064;-86
2021/03/06 11:52:39;;;;;;;8.25;4.93;;;20.90;47.80;;;;;;5048168;28;20017;-87
2021/03/06 11:55:07;;;;;;;9.48;4.63;;;20.40;46.50;;;;;;5048045;28;20029;-86
2021/03/06 11:57:33;;;;;;;8.85;4.43;;;19.50;45.50;;;;;;5047704;28;20021;-84
2021/03/06 12:00:00;;;;;;;11.35;5.03;;;18.60;45.80;;;;;;5048161;28;20033;-86
2021/03/06 12:02:27;;;;;;;10.27;5.00;;;17.80;46.20;;;;;;5046970;28;20028;-87
2021/03/06 12:04:53;;;;;;;12.13;4.78;;;17.30;46.60;;;;;;5047834;28;20055;-86
2021/03/06 12:07:18;;;;;;;11.30;4.60;;;17.00;47.30;;;;;;5014495;28;20062;-85
2021/03/06 12:09:44;;;;;;;8.55;5.00;;;16.90;48.10;;;;;;5030732;28;20105;-83
2021/03/06 12:12:10;;;;;;;13.95;5.20;;;16.90;48.00;;;;;;5030449;28;20037;-86
2021/03/06 12:14:36;;;;;;;13.13;5.40;;;17.10;47.90;;;;;;5048748;28;20353;-86
2021/03/06 12:17:02;;;;;;;17.70;4.93;;;17.00;47.50;;;;;;5028795;28;20033;-86
2021/03/06 12:19:28;;;;;;;10.20;5.15;;;17.30;48.70;;;;;;5045816;28;20032;-84
2021/03/06 12:21:54;;;;;;;12.93;5.40;;;17.30;47.80;;;;;;5048229;28;20483;-84
2021/03/06 12:24:19;;;;;;;9.63;4.85;;;17.20;47.40;;;;;;5047827;28;20028;-88
2021/03/06 12:26:47;;;;;;;12.43;5.05;;;17.10;47.10;;;;;;5030830;28;20518;-85
2021/03/06 12:29:14;;;;;;;13.18;4.95;;;16.80;47.10;;;;;;5030088;28;20079;-86
2021/03/06 12:31:41;;;;;;;11.30;5.32;;;16.70;47.70;;;;;;5013496;28;20029;-84
2021/03/06 12:34:07;;;;;;;11.52;4.78;;;16.80;48.40;;;;;;5049732;28;20071;-85
2021/03/06 12:36:33;;;;;;;12.48;5.60;;;17.00;48.60;;;;;;5048122;28;20021;-88
2021/03/06 12:38:59;;;;;;;11.50;5.53;;;17.60;49.10;;;;;;5029268;28;20454;-86
2021/03/06 12:41:25;;;;;;;14.98;5.07;;;18.30;48.40;;;;;;5046325;28;20079;-86
2021/03/06 12:43:50;;;;;;;14.00;6.20;;;18.90;47.70;;;;;;5013993;28;20463;-87
2021/03/06 12:46:16;;;;;;;10.10;5.22;;;19.10;46.30;;;;;;5049685;28;20089;-86
2021/03/06 12:48:42;;;;;;;11.35;5.30;;;18.70;44.90;;;;;;5033318;28;20036;-84